Time;durP1;ratioP1;P1;durP2;ratioP2;P2;SDS_P1;SDS_P2;PMS_P1;PMS_P2;Temp;Humidity;BMP_temperature;BMP_pressure;BME280_temperature;BME280_humidity;BME280_pressure;Samples;Min_cycle;Max_cycle;Signal;HPM_P1;HPM_P2
2023/04/06 00:01:34;;;;;;;14.43;9.48;;;;;;;;;;5091877;28;20066;-64
2023/04/06 00:04:00;;;;;;;16.60;9.85;;;3.10;99.90;;;;;;5091089;28;20052;-64
2023/04/06 00:06:26;;;;;;;13.20;9.35;;;2.80;99.90;;;;;;5091554;28;20067;-64
2023/04/06 00:08:52;;;;;;;15.93;9.95;;;2.90;99.90;;;;;;5091768;28;20044;-65
2023/04/06 00:11:18;;;;;;;15.80;10.23;;;2.80;99.90;;;;;;5091450;28;20082;-64
2023/04/06 00:13:44;;;;;;;15.80;9.93;;;2.90;99.90;;;;;;5091806;28;20047;-64
2023/04/06 00:16:10;;;;;;;;;;;2.90;99.90;;;;;;5091866;28;20069;-64
2023/04/06 00:18:36;;;;;;;13.27;9.50;;;;;;;;;;5091004;28;20006;-63
2023/04/06 00:21:02;;;;;;;18.17;11.40;;;2.70;99.90;;;;;;5091404;28;20044;-64
2023/04/06 00:23:28;;;;;;;15.80;9.73;;;;;;;;;;5090406;28;20399;-64
2023/04/06 00:25:55;;;;;;;14.20;9.93;;;;;;;;;;5090954;28;20044;-64
2023/04/06 00:28:25;;;;;;;13.68;9.63;;;;;;;;;;5091216;28;20543;-64
2023/04/06 00:30:52;;;;;;;14.50;10.43;;;;;;;;;;5090568;28;20078;-64
2023/04/06 00:33:19;;;;;;;17.20;10.20;;;2.80;99.90;;;;;;5090465;28;20048;-63
2023/04/06 00:35:45;;;;;;;18.55;10.70;;;2.90;99.90;;;;;;5091066;28;20569;-65
2023/04/06 00:38:12;;;;;;;20.85;9.88;;;;;;;;;;5091252;28;20044;-64
2023/04/06 00:40:39;;;;;;;15.63;10.60;;;;;;;;;;5090775;28;20105;-64
2023/04/06 00:43:11;;;;;;;15.10;10.30;;;;;;;;;;5091165;28;20117;-66
2023/04/06 00:45:38;;;;;;;15.90;10.15;;;2.40;99.90;;;;;;5090929;28;20472;-64
2023/04/06 00:48:05;;;;;;;15.60;10.07;;;2.70;99.90;;;;;;5090723;28;20048;-68
2023/04/06 00:50:30;;;;;;;14.55;10.13;;;2.20;99.90;;;;;;5091040;28;20052;-64
2023/04/06 00:52:57;;;;;;;16.42;10.18;;;;;;;;;;5091115;28;20119;-64
2023/04/06 00:55:22;;;;;;;;;;;2.60;99.90;;;;;;5091200;28;20451;-64
2023/04/06 00:57:50;;;;;;;15.45;10.32;;;;;;;;;;5091031;28;19978;-64
2023/04/06 01:00:16;;;;;;;15.15;10.90;;;2.40;99.90;;;;;;5090668;28;20060;-66
2023/04/06 01:02:42;;;;;;;;;;;2.30;99.90;;;;;;5090367;28;20396;-64
2023/04/06 01:05:08;;;;;;;19.33;10.45;;;;;;;;;;5091207;28;19920;-64
2023/04/06 01:07:34;;;;;;;16.50;10.70;;;2.20;99.90;;;;;;5091075;28;20087;-64
2023/04/06 01:10:00;;;;;;;16.92;10.60;;;;;;;;;;5090531;28;20087;-64
2023/04/06 01:12:26;;;;;;;15.25;10.88;;;;;;;;;;5090500;28;20527;-67
2023/04/06 01:14:52;;;;;;;14.40;10.52;;;;;;;;;;5090758;28;20131;-64
2023/04/06 01:17:18;;;;;;;16.27;10.93;;;2.20;99.90;;;;;;5090196;28;20048;-64
2023/04/06 01:19:45;;;;;;;17.35;10.35;;;1.90;99.90;;;;;;5091359;28;20043;-64
2023/04/06 01:22:18;;;;;;;15.38;10.77;;;1.90;99.90;;;;;;5091346;28;20047;-65
2023/04/06 01:24:44;;;;;;;17.65;11.05;;;;;;;;;;5090795;28;20091;-64
2023/04/06 01:27:10;;;;;;;19.15;10.75;;;;;;;;;;5091313;28;20067;-64
2023/04/06 01:29:36;;;;;;;16.48;11.93;;;;;;;;;;5089300;28;20131;-63
2023/04/06 01:32:02;;;;;;;16.42;10.90;;;2.20;99.90;;;;;;5090626;28;20055;-65
2023/04/06 01:34:29;;;;;;;18.02;11.63;;;;;;;;;;5090992;28;20070;-64
2023/04/06 01:36:55;;;;;;;15.43;11.07;;;2.20;99.90;;;;;;5091117;28;20051;-64
2023/04/06 01:39:20;;;;;;;17.05;11.52;;;2.10;99.90;;;;;;5090625;28;20052;-68
2023/04/06 01:41:47;;;;;;;18.42;12.30;;;2.20;99.90;;;;;;5091607;28;20047;-64
2023/04/06 01:44:16;;;;;;;16.13;11.18;;;2.00;99.90;;;;;;5094803;28;20399;-66
2023/04/06 01:46:42;;;;;;;18.08;11.60;;;1.90;99.90;;;;;;5094478;28;20059;-64
2023/04/06 01:49:08;;;;;;;18.83;12.25;;;;;;;;;;5094941;28;20048;-68
2023/04/06 01:51:34;;;;;;;18.42;12.52;;;;;;;;;;5094139;28;20048;-64
2023/04/06 01:54:00;;;;;;;15.45;10.98;;;1.90;99.90;;;;;;5094433;28;20114;-64
2023/04/06 01:56:26;;;;;;;17.52;11.95;;;;;;;;;;5094625;28;20131;-77
2023/04/06 01:58:52;;;;;;;18.98;12.00;;;;;;;;;;5094279;28;20044;-64
2023/04/06 02:01:18;;;;;;;16.05;11.52;;;;;;;;;;5093964;28;20048;-64
2023/04/06 02:03:44;;;;;;;15.43;10.73;;;;;;;;;;5094527;28;20094;-64
2023/04/06 02:06:10;;;;;;;21.42;12.07;;;1.70;99.90;;;;;;5094604;28;20040;-63
2023/04/06 02:08:36;;;;;;;16.13;12.00;;;;;;;;;;5094149;28;20107;-76
2023/04/06 02:11:02;;;;;;;16.23;12.02;;;;;;;;;;5094413;28;20043;-64
2023/04/06 02:13:28;;;;;;;18.58;11.93;;;;;;;;;;5094357;28;20407;-64
2023/04/06 02:15:54;;;;;;;18.20;11.80;;;;;;;;;;5094211;28;20058;-74
2023/04/06 02:18:22;;;;;;;17.88;11.52;;;;;;;;;;5093863;28;20048;-64
2023/04/06 02:20:48;;;;;;;21.80;12.75;;;;;;;;;;5094191;28;20546;-64
2023/04/06 02:23:14;;;;;;;16.27;12.07;;;;;;;;;;5094093;28;20039;-64
2023/04/06 02:25:40;;;;;;;19.08;12.63;;;;;;;;;;5093744;28;20052;-66
2023/04/06 02:28:06;;;;;;;19.25;12.45;;;;;;;;;;5093766;28;20051;-67
2023/04/06 02:30:33;;;;;;;17.50;11.73;;;;;;;;;;5093995;28;20087;-64
2023/04/06 02:33:00;;;;;;;18.77;12.55;;;1.50;99.90;;;;;;5093633;28;20048;-64
2023/04/06 02:35:26;;;;;;;21.30;12.32;;;;;;;;;;5093790;28;20785;-64
2023/04/06 02:37:52;;;;;;;21.13;12.95;;;;;;;;;;5094098;28;20051;-64
2023/04/06 02:40:18;;;;;;;19.73;12.95;;;;;;;;;;5093486;28;20164;-69
2023/04/06 02:42:44;;;;;;;16.92;12.38;;;1.40;99.90;;;;;;5093611;28;20048;-64
2023/04/06 02:45:10;;;;;;;20.90;12.95;;;;;;;;;;5093993;28;20054;-64
2023/04/06 02:47:36;;;;;;;17.70;12.13;;;;;;;;;;5093149;28;20496;-69
2023/04/06 02:50:02;;;;;;;19.98;12.82;;;1.20;99.90;;;;;;5093857;28;20048;-65
2023/04/06 02:52:28;;;;;;;18.13;13.10;;;;;;;;;;5093645;28;20051;-64
2023/04/06 02:54:54;;;;;;;21.52;13.52;;;1.40;99.90;;;;;;5091676;28;20083;-64
2023/04/06 02:57:20;;;;;;;20.08;12.25;;;;;;;;;;5093596;28;20087;-64
2023/04/06 02:59:45;;;;;;;20.55;13.07;;;1.20;99.90;;;;;;5093856;28;20094;-64
2023/04/06 03:02:11;;;;;;;20.40;13.27;;;1.20;99.90;;;;;;5093066;28;20083;-69
2023/04/06 03:04:37;;;;;;;19.77;13.70;;;;;;;;;;5093746;28;20051;-65
2023/04/06 03:07:03;;;;;;;20.73;13.45;;;1.10;99.90;;;;;;5093437;28;20278;-64
2023/04/06 03:09:29;;;;;;;19.73;13.38;;;;;;;;;;5092841;28;20546;-64
2023/04/06 03:11:55;;;;;;;20.90;13.75;;;;;;;;;;5093317;28;20151;-64
2023/04/06 03:14:22;;;;;;;18.23;13.20;;;1.10;99.90;;;;;;5093196;28;20434;-64
2023/04/06 03:16:48;;;;;;;;;;;1.00;99.90;;;;;;5093423;28;20056;-68
2023/04/06 03:19:14;;;;;;;20.00;13.23;;;;;;;;;;5093189;28;19967;-65
2023/04/06 03:21:41;;;;;;;18.23;13.63;;;;;;;;;;5093191;28;20051;-64
2023/04/06 03:24:07;;;;;;;21.05;13.95;;;;;;;;;;5092717;28;20059;-64
2023/04/06 03:26:33;;;;;;;19.27;13.43;;;1.10;99.90;;;;;;5092769;28;20058;-65
2023/04/06 03:28:59;;;;;;;19.85;13.85;;;;;;;;;;5092941;28;20396;-65
2023/04/06 03:31:26;;;;;;;19.58;13.75;;;1.20;99.90;;;;;;5092345;28;20068;-65
2023/04/06 03:33:52;;;;;;;23.10;13.60;;;;;;;;;;5092860;28;20056;-65
2023/04/06 03:36:19;;;;;;;21.58;14.38;;;;;;;;;;5092678;28;20047;-64
2023/04/06 03:38:45;;;;;;;23.35;13.95;;;;;;;;;;5092399;28;20397;-64
2023/04/06 03:41:10;;;;;;;21.45;13.68;;;1.00;99.90;;;;;;5092367;28;20043;-64
2023/04/06 03:43:36;;;;;;;25.35;14.25;;;;;;;;;;5092678;28;20051;-64
2023/04/06 03:46:03;;;;;;;23.20;13.82;;;;;;;;;;5092283;28;20459;-65
2023/04/06 03:48:29;;;;;;;21.88;13.68;;;;;;;;;;5092531;28;20117;-64
2023/04/06 03:50:55;;;;;;;21.13;13.77;;;1.20;99.90;;;;;;5092582;28;20055;-65
2023/04/06 03:53:20;;;;;;;24.60;14.40;;;1.00;99.90;;;;;;5091045;28;20097;-64
2023/04/06 03:55:46;;;;;;;19.92;14.32;;;;;;;;;;5092206;28;20353;-64
2023/04/06 03:58:12;;;;;;;20.73;13.85;;;0.90;99.90;;;;;;5092468;28;20101;-67
2023/04/06 04:00:38;;;;;;;20.52;13.43;;;0.90;99.90;;;;;;5091963;28;20048;-64
2023/04/06 04:03:04;;;;;;;21.30;14.27;;;;;;;;;;5092507;28;20048;-74
2023/04/06 04:05:30;;;;;;;18.95;13.18;;;;;;;;;;5091586;28;20139;-64
2023/04/06 04:07:56;;;;;;;25.42;15.07;;;;;;;;;;5091834;28;20055;-65
2023/04/06 04:10:22;;;;;;;21.30;13.77;;;;;;;;;;5091948;28;20040;-64
2023/04/06 04:12:48;;;;;;;20.98;14.32;;;;;;;;;;5092105;28;20055;-64
2023/04/06 04:15:14;;;;;;;22.42;14.30;;;0.90;99.90;;;;;;5091783;28;20172;-64
2023/04/06 04:17:40;;;;;;;21.60;14.82;;;;;;;;;;5092130;28;20203;-65
2023/04/06 04:20:06;;;;;;;21.35;14.07;;;;;;;;;;5092083;28;20040;-64
2023/04/06 04:22:32;;;;;;;21.35;15.05;;;;;;;;;;5091587;28;20715;-64
2023/04/06 04:24:58;;;;;;;21.40;14.07;;;0.80;99.90;;;;;;5091588;28;20471;-64
2023/04/06 04:27:24;;;;;;;22.77;14.63;;;0.60;99.90;;;;;;5091706;28;20051;-64
2023/04/06 04:29:50;;;;;;;20.63;14.45;;;;;;;;;;5091432;28;20484;-64
2023/04/06 04:32:16;;;;;;;22.05;14.25;;;0.70;99.90;;;;;;5091869;28;20088;-65
2023/04/06 04:34:42;;;;;;;21.88;15.23;;;;;;;;;;5091939;28;20133;-67
2023/04/06 04:37:08;;;;;;;19.63;14.27;;;;;;;;;;5091180;28;20514;-65
2023/04/06 04:39:34;;;;;;;20.80;15.07;;;;;;;;;;5091639;28;20180;-65
2023/04/06 04:42:00;;;;;;;24.30;15.45;;;;;;;;;;5090839;28;20080;-65
2023/04/06 04:44:26;;;;;;;23.10;15.48;;;0.70;99.90;;;;;;5091283;28;20101;-64
2023/04/06 04:46:52;;;;;;;25.50;14.97;;;;;;;;;;5092067;28;20535;-64
2023/04/06 04:49:18;;;;;;;22.42;14.95;;;;;;;;;;5091752;28;20298;-79
2023/04/06 04:51:44;;;;;;;22.45;15.02;;;;;;;;;;5091352;28;20052;-78
2023/04/06 04:54:10;;;;;;;25.05;15.55;;;;;;;;;;5091843;28;20097;-65
2023/04/06 04:56:36;;;;;;;22.75;15.68;;;0.50;99.90;;;;;;5091623;28;20093;-64
2023/04/06 04:59:02;;;;;;;24.38;16.05;;;;;;;;;;5091169;28;20048;-64
2023/04/06 05:01:28;;;;;;;24.88;15.48;;;;;;;;;;5091553;28;20532;-69
2023/04/06 05:03:54;;;;;;;25.35;15.75;;;;;;;;;;5091536;28;20048;-65
2023/04/06 05:06:20;;;;;;;24.77;15.82;;;;;;;;;;5090992;28;20048;-65
2023/04/06 05:08:46;;;;;;;26.27;16.60;;;0.50;99.90;;;;;;5091554;28;20395;-64
2023/04/06 05:11:12;;;;;;;24.52;15.95;;;;;;;;;;5091582;28;20093;-64
2023/04/06 05:13:38;;;;;;;24.70;15.18;;;;;;;;;;5090996;28;20056;-69
2023/04/06 05:16:04;;;;;;;25.50;15.50;;;0.70;99.90;;;;;;5091407;28;20066;-69
2023/04/06 05:18:30;;;;;;;23.42;15.95;;;0.60;99.90;;;;;;5094963;28;20498;-64
2023/04/06 05:20:56;;;;;;;24.50;15.65;;;;;;;;;;5095266;28;20130;-65
2023/04/06 05:23:22;;;;;;;23.50;14.85;;;;;;;;;;5095326;28;20044;-64
2023/04/06 05:25:48;;;;;;;23.40;15.40;;;0.70;99.90;;;;;;5095247;28;20583;-68
2023/04/06 05:28:15;;;;;;;26.67;14.95;;;0.70;99.90;;;;;;5095064;28;20051;-65
2023/04/06 05:30:42;;;;;;;22.05;14.70;;;0.60;99.90;;;;;;5095213;28;20071;-64
2023/04/06 05:33:09;;;;;;;20.30;14.73;;;;;;;;;;5095834;28;20054;-69
2023/04/06 05:35:35;;;;;;;25.83;14.98;;;;;;;;;;5095641;28;20055;-64
2023/04/06 05:38:01;;;;;;;26.27;16.00;;;0.60;99.90;;;;;;5095795;28;20048;-65
2023/04/06 05:40:27;;;;;;;23.30;14.85;;;;;;;;;;5095687;28;20400;-65
2023/04/06 05:42:54;;;;;;;24.48;14.95;;;;;;;;;;5095750;28;20462;-64
2023/04/06 05:45:21;;;;;;;20.40;13.95;;;;;;;;;;5095666;28;20081;-65
2023/04/06 05:47:46;;;;;;;26.10;15.10;;;0.70;99.90;;;;;;5095494;28;20056;-64
2023/04/06 05:50:13;;;;;;;20.48;14.98;;;;;;;;;;5095559;28;20078;-64
2023/04/06 05:52:42;;;;;;;22.08;15.50;;;;;;;;;;5095541;28;20054;-69
2023/04/06 05:55:09;;;;;;;24.05;14.93;;;;;;;;;;5095511;28;20052;-64
2023/04/06 05:57:35;;;;;;;23.13;14.57;;;;;;;;;;5095391;28;20181;-64
2023/04/06 06:00:03;;;;;;;20.05;14.25;;;;;;;;;;5095145;28;20040;-64
2023/04/06 06:02:31;;;;;;;23.20;14.55;;;;;;;;;;5095206;28;20055;-68
2023/04/06 06:04:57;;;;;;;22.63;13.27;;;;;;;;;;5095045;28;20048;-68
2023/04/06 06:07:24;;;;;;;20.98;14.43;;;;;;;;;;5095297;28;20048;-65
2023/04/06 06:09:50;;;;;;;23.15;14.85;;;1.50;99.90;;;;;;5095247;28;20051;-64
2023/04/06 06:12:16;;;;;;;19.08;14.07;;;;;;;;;;5095294;28;20055;-65
2023/04/06 06:14:42;;;;;;;23.58;14.48;;;1.50;99.90;;;;;;5095080;28;20048;-64
2023/04/06 06:17:08;;;;;;;22.33;14.57;;;;;;;;;;5095160;28;20091;-64
2023/04/06 06:19:34;;;;;;;25.83;14.35;;;;;;;;;;5094846;28;20044;-65
2023/04/06 06:22:02;;;;;;;22.92;13.27;;;;;;;;;;5094919;28;20404;-65
2023/04/06 06:24:28;;;;;;;20.65;13.32;;;;;;;;;;5094980;28;20048;-65
2023/04/06 06:26:54;;;;;;;;;;;1.80;99.90;;;;;;5095413;28;20109;-67
2023/04/06 06:29:20;;;;;;;19.52;13.68;;;;;;;;;;5093917;28;19920;-65
2023/04/06 06:31:46;;;;;;;21.42;13.18;;;1.90;99.90;;;;;;5094910;28;20102;-64
2023/04/06 06:34:12;;;;;;;20.07;13.37;;;2.10;99.90;;;;;;5094675;28;20131;-65
2023/04/06 06:36:38;;;;;;;16.83;12.48;;;2.40;99.90;;;;;;5094704;28;20339;-65
2023/04/06 06:39:04;;;;;;;19.40;12.85;;;2.30;99.90;;;;;;5094636;28;20404;-69
2023/04/06 06:41:30;;;;;;;16.52;12.40;;;;;;;;;;5094718;28;20122;-65
2023/04/06 06:43:56;;;;;;;17.30;12.25;;;2.50;99.90;;;;;;5094724;28;20094;-65
2023/04/06 06:46:21;;;;;;;20.30;13.18;;;2.80;99.90;;;;;;5094397;28;20040;-64
2023/04/06 06:48:47;;;;;;;18.08;12.82;;;;;;;;;;5089158;28;20044;-65
2023/04/06 06:51:14;;;;;;;17.88;12.35;;;;;;;;;;5092814;28;20494;-65
2023/04/06 06:53:39;;;;;;;;;;;2.90;99.90;;;;;;5094172;28;20048;-68
2023/04/06 06:56:05;;;;;;;21.55;12.27;;;2.80;99.90;;;;;;5093023;28;19946;-65
2023/04/06 06:58:31;;;;;;;18.60;12.50;;;3.20;99.90;;;;;;5093577;28;20044;-65
2023/04/06 07:00:58;;;;;;;17.55;12.20;;;3.00;99.90;;;;;;5093563;28;20048;-75
2023/04/06 07:03:24;;;;;;;19.42;12.48;;;3.10;99.90;;;;;;5090626;28;20428;-71
2023/04/06 07:05:53;;;;;;;19.35;12.15;;;3.20;99.90;;;;;;5092338;28;20043;-65
2023/04/06 07:08:22;;;;;;;19.23;11.95;;;3.40;99.90;;;;;;5087764;28;20052;-65
2023/04/06 07:10:50;;;;;;;16.92;12.40;;;4.00;99.90;;;;;;5089566;28;20047;-66
2023/04/06 07:13:21;;;;;;;17.80;12.30;;;3.50;99.90;;;;;;5091597;28;20488;-66
2023/04/06 07:15:47;;;;;;;19.95;11.77;;;3.60;99.90;;;;;;5092796;28;20044;-67
2023/04/06 07:18:13;;;;;;;17.77;12.52;;;3.80;99.90;;;;;;5093111;28;20575;-66
2023/04/06 07:20:39;;;;;;;22.73;12.80;;;4.20;99.90;;;;;;5092475;28;20498;-68
2023/04/06 07:23:05;;;;;;;17.48;12.00;;;4.10;99.90;;;;;;5092148;28;20048;-66
2023/04/06 07:25:31;;;;;;;16.58;11.55;;;4.30;99.90;;;;;;5092412;28;20085;-67
2023/04/06 07:27:57;;;;;;;18.00;12.27;;;;;;;;;;5091544;28;20044;-67
2023/04/06 07:30:24;;;;;;;;;;;4.80;99.90;;;;;;5092377;28;20103;-67
2023/04/06 07:32:50;;;;;;;17.33;11.32;;;4.90;99.90;;;;;;5092782;28;19923;-68
2023/04/06 07:35:16;;;;;;;18.27;11.32;;;5.00;99.90;;;;;;5092838;28;20127;-67
2023/04/06 07:37:42;;;;;;;16.02;11.00;;;5.20;99.90;;;;;;5092321;28;20571;-74
2023/04/06 07:40:08;;;;;;;19.08;11.50;;;5.00;99.90;;;;;;5091948;28;20048;-69
2023/04/06 07:42:34;;;;;;;15.05;11.55;;;5.00;99.90;;;;;;5092742;28;20051;-68
2023/04/06 07:45:00;;;;;;;15.13;11.30;;;7.30;99.90;;;;;;5092029;28;20040;-76
2023/04/06 07:47:25;;;;;;;15.88;11.10;;;5.80;99.90;;;;;;5092373;28;20130;-69
2023/04/06 07:49:51;;;;;;;20.25;11.43;;;5.60;99.90;;;;;;5092429;28;20044;-68
2023/04/06 07:52:17;;;;;;;16.20;11.52;;;5.90;99.90;;;;;;5092543;28;20128;-67
2023/04/06 07:54:43;;;;;;;18.08;11.30;;;5.90;99.90;;;;;;5091547;28;20040;-66
2023/04/06 07:57:08;;;;;;;20.25;11.75;;;6.30;99.90;;;;;;5092639;28;20048;-70
2023/04/06 07:59:34;;;;;;;18.48;11.32;;;6.30;99.90;;;;;;5092218;28;20040;-67
2023/04/06 08:02:00;;;;;;;16.27;10.88;;;6.30;99.90;;;;;;5091649;28;20055;-70
2023/04/06 08:04:26;;;;;;;17.00;11.15;;;6.50;99.90;;;;;;5092210;28;20040;-67
2023/04/06 08:06:52;;;;;;;17.55;10.57;;;6.80;99.90;;;;;;5092433;28;20052;-66
2023/04/06 08:09:17;;;;;;;13.95;10.30;;;6.70;99.90;;;;;;5091233;28;20044;-68
2023/04/06 08:11:44;;;;;;;20.95;10.77;;;7.20;99.90;;;;;;5092072;28;20048;-67
2023/04/06 08:14:10;;;;;;;14.95;10.57;;;7.40;99.90;;;;;;5092101;28;20105;-68
2023/04/06 08:16:36;;;;;;;14.93;10.95;;;7.70;99.90;;;;;;5091569;28;20079;-68
2023/04/06 08:19:01;;;;;;;17.35;10.32;;;7.70;99.90;;;;;;5092150;28;20391;-67
2023/04/06 08:21:27;;;;;;;17.13;10.35;;;7.70;99.90;;;;;;5091685;28;20043;-66
2023/04/06 08:23:53;;;;;;;15.43;10.88;;;7.60;99.90;;;;;;5091283;28;20079;-68
2023/04/06 08:26:18;;;;;;;19.23;10.48;;;7.70;99.90;;;;;;5091875;28;20161;-67
2023/04/06 08:28:44;;;;;;;16.45;9.93;;;7.80;99.90;;;;;;5091929;28;20119;-66
2023/04/06 08:31:10;;;;;;;15.85;10.30;;;8.20;99.90;;;;;;5090697;28;20064;-66
2023/04/06 08:33:36;;;;;;;14.25;9.75;;;8.00;99.90;;;;;;5091805;28;20048;-69
2023/04/06 08:36:15;;;;;;;15.63;10.20;;;8.20;99.90;;;;;;5091825;28;20048;-67
2023/04/06 08:38:42;;;;;;;19.15;10.48;;;8.70;99.90;;;;;;5091316;28;20047;-72
2023/04/06 08:41:13;;;;;;;16.38;9.30;;;9.00;99.90;;;;;;5091640;28;20129;-67
2023/04/06 08:43:51;;;;;;;17.02;10.13;;;9.00;99.90;;;;;;5091694;28;20488;-67
2023/04/06 08:46:17;;;;;;;16.42;10.00;;;9.00;99.90;;;;;;5091268;28;20093;-66
2023/04/06 08:48:44;;;;;;;15.30;9.40;;;9.20;99.90;;;;;;5091684;28;20055;-66
2023/04/06 08:51:10;;;;;;;18.10;10.18;;;9.20;99.90;;;;;;5091451;28;20052;-66
2023/04/06 08:53:36;;;;;;;;;;;9.40;99.90;;;;;;5090787;28;20537;-69
2023/04/06 08:56:03;;;;;;;16.95;9.80;;;9.80;99.90;;;;;;5091206;28;19927;-71
2023/04/06 08:58:35;;;;;;;16.00;10.43;;;10.00;99.90;;;;;;5091249;28;20047;-68
2023/04/06 09:01:02;;;;;;;15.57;10.88;;;9.80;99.90;;;;;;5091234;28;20044;-69
2023/04/06 09:03:30;;;;;;;13.98;9.70;;;10.10;99.90;;;;;;5091414;28;20446;-66
2023/04/06 09:05:56;;;;;;;13.98;10.05;;;10.10;99.90;;;;;;5090895;28;20119;-67
2023/04/06 09:08:22;;;;;;;14.73;9.73;;;10.30;99.90;;;;;;5090477;28;20131;-65
2023/04/06 09:10:49;;;;;;;13.45;9.82;;;10.20;99.90;;;;;;5091145;28;20048;-65
2023/04/06 09:13:15;;;;;;;17.48;11.13;;;10.20;99.90;;;;;;5090975;28;20043;-65
2023/04/06 09:15:40;;;;;;;16.60;10.68;;;9.90;99.90;;;;;;5090961;28;20368;-67
2023/04/06 09:18:07;;;;;;;15.13;10.32;;;10.20;99.90;;;;;;5091395;28;20097;-75
2023/04/06 09:20:33;;;;;;;14.60;10.45;;;9.80;99.90;;;;;;5091700;28;20052;-68
2023/04/06 09:22:59;;;;;;;19.02;10.93;;;9.90;99.90;;;;;;5090456;28;20050;-67
2023/04/06 09:25:28;;;;;;;16.75;10.52;;;10.10;99.90;;;;;;5091117;28;20054;-67
2023/04/06 09:28:01;;;;;;;16.33;10.70;;;9.90;99.90;;;;;;5091319;28;20060;-68
2023/04/06 09:30:28;;;;;;;16.63;10.88;;;10.40;99.90;;;;;;5090806;28;20063;-65
2023/04/06 09:32:55;;;;;;;19.38;11.68;;;10.20;99.90;;;;;;5091388;28;20074;-65
2023/04/06 09:35:22;;;;;;;18.92;11.38;;;9.90;99.90;;;;;;5091464;28;20048;-66
2023/04/06 09:37:50;;;;;;;14.20;10.70;;;10.00;99.90;;;;;;5090480;28;20105;-66
2023/04/06 09:40:19;;;;;;;16.02;10.90;;;10.20;99.90;;;;;;5090901;28;20119;-66
2023/04/06 09:42:51;;;;;;;16.58;10.93;;;10.10;99.90;;;;;;5089718;28;20040;-68
2023/04/06 09:45:17;;;;;;;14.82;10.90;;;10.30;99.90;;;;;;5090741;28;20399;-69
2023/04/06 09:47:45;;;;;;;15.77;10.90;;;10.50;99.90;;;;;;5090787;28;20048;-69
2023/04/06 09:50:12;;;;;;;17.95;12.20;;;10.50;99.90;;;;;;5090944;28;20132;-66
2023/04/06 09:52:50;;;;;;;18.73;11.82;;;10.30;99.90;;;;;;5089467;28;20055;-66
2023/04/06 09:55:34;;;;;;;17.20;12.35;;;10.70;99.90;;;;;;5094627;28;20163;-66
2023/04/06 09:58:09;;;;;;;14.40;11.15;;;10.70;99.90;;;;;;5109869;28;20123;-71
2023/04/06 10:00:47;;;;;;;18.83;11.60;;;10.40;99.90;;;;;;5090877;28;20150;-66
2023/04/06 10:03:49;;;;;;;18.98;11.82;;;10.60;99.90;;;;;;5088503;28;20120;-66
2023/04/06 10:06:21;;;;;;;19.42;12.20;;;10.70;99.90;;;;;;5092993;28;20109;-67
2023/04/06 10:08:49;;;;;;;17.63;12.20;;;10.80;99.90;;;;;;5107219;28;20113;-72
2023/04/06 10:11:16;;;;;;;20.23;13.32;;;10.60;99.90;;;;;;5114949;28;20677;-67
2023/04/06 10:13:42;;;;;;;20.30;12.98;;;10.70;99.90;;;;;;5114093;28;20056;-68
2023/04/06 10:16:08;;;;;;;20.08;12.32;;;10.70;99.90;;;;;;5114473;28;20048;-66
2023/04/06 10:18:35;;;;;;;19.35;12.98;;;11.00;99.90;;;;;;5099200;28;20051;-68
2023/04/06 10:21:09;;;;;;;;;;;10.90;99.90;;;;;;5092247;28;20052;-66
2023/04/06 10:24:00;;;;;;;24.52;14.02;;;11.20;99.90;;;;;;5094535;28;19926;-66
2023/04/06 10:26:26;;;;;;;21.42;13.00;;;10.80;99.90;;;;;;5093912;28;20480;-66
2023/04/06 10:28:52;;;;;;;22.95;13.85;;;11.40;99.90;;;;;;5094752;28;20036;-67
2023/04/06 10:31:26;;;;;;;23.20;13.90;;;11.10;99.90;;;;;;5094598;28;20064;-67
2023/04/06 10:33:59;;;;;;;22.13;13.90;;;11.20;99.90;;;;;;5093780;28;20140;-66
2023/04/06 10:36:27;;;;;;;21.23;14.60;;;11.00;99.90;;;;;;5094667;28;20056;-71
2023/04/06 10:38:59;;;;;;;23.85;14.98;;;11.40;99.90;;;;;;5094578;28;20044;-66
2023/04/06 10:41:40;;;;;;;21.60;13.73;;;11.50;99.90;;;;;;5093544;28;20051;-66
2023/04/06 10:44:06;;;;;;;24.10;14.45;;;11.60;99.90;;;;;;5094431;28;20051;-65
2023/04/06 10:46:33;;;;;;;22.90;15.27;;;12.10;99.90;;;;;;5094281;28;20071;-68
2023/04/06 10:49:12;;;;;;;26.08;14.68;;;12.10;99.90;;;;;;5093561;28;20086;-67
2023/04/06 10:51:39;;;;;;;26.05;15.30;;;12.20;99.90;;;;;;5094275;28;20095;-69
2023/04/06 10:54:06;;;;;;;22.92;15.45;;;12.50;99.90;;;;;;5093186;28;20419;-77
2023/04/06 10:56:36;;;;;;;23.48;15.27;;;12.40;99.90;;;;;;5093715;28;20123;-71
2023/04/06 10:59:02;;;;;;;26.27;16.25;;;12.20;99.90;;;;;;5093487;28;20079;-65
2023/04/06 11:01:28;;;;;;;;;;;12.30;99.90;;;;;;5094274;28;20052;-71
2023/04/06 11:03:59;;;;;;;30.45;16.67;;;12.50;99.90;;;;;;5093542;28;19964;-65
2023/04/06 11:06:26;;;;;;;28.55;17.67;;;12.50;99.90;;;;;;5094033;28;20052;-65
2023/04/06 11:08:53;;;;;;;31.08;18.08;;;12.80;99.90;;;;;;5093431;28;20076;-73
2023/04/06 11:11:21;;;;;;;27.33;18.92;;;12.50;99.90;;;;;;5092200;28;20087;-65
2023/04/06 11:13:50;;;;;;;32.53;21.38;;;12.70;99.90;;;;;;5091386;28;20400;-65
2023/04/06 11:16:18;;;;;;;34.47;20.70;;;12.60;99.90;;;;;;5093553;28;20044;-66
2023/04/06 11:18:49;;;;;;;32.72;20.70;;;12.90;99.90;;;;;;5092661;28;20093;-66
2023/04/06 11:21:14;;;;;;;37.08;26.92;;;13.10;99.90;;;;;;5093986;28;20048;-66
2023/04/06 11:23:40;;;;;;;40.80;27.05;;;13.00;99.90;;;;;;5093537;28;20445;-65
2023/04/06 11:26:14;;;;;;;38.60;24.75;;;13.20;99.90;;;;;;5092621;28;20036;-65
2023/04/06 11:28:42;;;;;;;41.28;26.15;;;13.30;99.90;;;;;;5094053;28;20076;-65
2023/04/06 11:31:09;;;;;;;40.55;27.08;;;13.30;99.90;;;;;;5093561;28;20124;-66
2023/04/06 11:33:38;;;;;;;42.55;26.85;;;13.60;99.90;;;;;;5093647;28;20048;-65
2023/04/06 11:36:05;;;;;;;39.90;26.95;;;13.10;99.90;;;;;;5093648;28;20381;-65
2023/04/06 11:38:31;;;;;;;42.70;27.33;;;13.10;99.90;;;;;;5093661;28;20052;-68
2023/04/06 11:40:57;;;;;;;42.05;26.65;;;13.40;99.90;;;;;;5093835;28;20051;-65
2023/04/06 11:43:31;;;;;;;40.25;26.77;;;13.50;99.90;;;;;;5093634;28;20388;-65
2023/04/06 11:46:04;;;;;;;39.30;26.80;;;13.40;99.90;;;;;;5094032;28;20043;-65
2023/04/06 11:48:30;;;;;;;37.47;26.38;;;13.30;99.90;;;;;;5093617;28;20051;-66
2023/04/06 11:51:00;;;;;;;40.35;25.17;;;13.60;99.90;;;;;;5093187;28;20102;-65
2023/04/06 11:53:28;;;;;;;36.22;24.38;;;13.30;99.90;;;;;;5092294;28;20149;-65
2023/04/06 11:55:54;;;;;;;38.63;24.35;;;13.60;99.90;;;;;;5090747;28;20404;-68
2023/04/06 11:58:19;;;;;;;32.33;22.95;;;13.10;99.90;;;;;;5092596;28;20048;-66
2023/04/06 12:00:45;;;;;;;;;;;12.90;99.90;;;;;;5093127;28;20040;-66
2023/04/06 12:03:11;;;;;;;41.92;23.25;;;12.80;99.90;;;;;;5092381;28;19920;-76
2023/04/06 12:05:38;;;;;;;33.08;22.50;;;12.80;99.90;;;;;;5091882;28;20047;-66
2023/04/06 12:08:03;;;;;;;;;;;12.90;99.90;;;;;;5092190;28;20079;-69
2023/04/06 12:10:29;;;;;;;35.95;22.30;;;12.90;99.90;;;;;;5092281;28;20409;-66
2023/04/06 12:12:55;;;;;;;33.97;21.90;;;12.70;99.90;;;;;;5092462;28;20052;-66
2023/04/06 12:15:21;;;;;;;32.20;22.85;;;12.70;99.90;;;;;;5092337;28;20083;-65
2023/04/06 12:17:47;;;;;;;37.63;22.58;;;13.00;99.90;;;;;;5092697;28;20051;-66
2023/04/06 12:20:13;;;;;;;;;;;13.00;99.90;;;;;;5092906;28;20036;-65
2023/04/06 12:22:39;;;;;;;33.65;23.33;;;12.60;99.90;;;;;;5092181;28;19924;-68
2023/04/06 12:25:06;;;;;;;;;;;12.70;99.90;;;;;;5092768;28;20087;-66
2023/04/06 12:27:32;;;;;;;38.70;23.15;;;12.70;99.90;;;;;;5091490;28;20364;-64
2023/04/06 12:29:58;;;;;;;33.53;22.27;;;12.40;99.90;;;;;;5091882;28;20047;-66
2023/04/06 12:32:24;;;;;;;33.03;22.80;;;12.50;99.90;;;;;;5091726;28;20064;-70
2023/04/06 12:34:52;;;;;;;36.72;23.15;;;12.80;99.90;;;;;;5091970;28;20131;-65
2023/04/06 12:37:18;;;;;;;35.33;22.98;;;12.70;99.90;;;;;;5091117;28;20568;-71
2023/04/06 12:39:44;;;;;;;36.05;22.25;;;12.40;99.90;;;;;;5092154;28;20081;-68
2023/04/06 12:42:12;;;;;;;35.22;23.02;;;12.50;99.90;;;;;;5091628;28;20058;-66
2023/04/06 12:44:38;;;;;;;39.33;23.98;;;12.40;99.90;;;;;;5092205;28;20052;-66
2023/04/06 12:47:04;;;;;;;34.20;22.55;;;12.50;99.90;;;;;;5092189;28;20047;-71
2023/04/06 12:49:31;;;;;;;35.63;22.48;;;12.70;99.90;;;;;;5090984;28;20393;-68
2023/04/06 12:51:57;;;;;;;36.95;22.02;;;12.80;99.90;;;;;;5091979;28;20056;-66
2023/04/06 12:54:22;;;;;;;35.97;22.80;;;12.70;99.90;;;;;;5092244;28;20066;-66
2023/04/06 12:56:48;;;;;;;33.47;22.90;;;12.50;99.90;;;;;;5092232;28;20106;-66
2023/04/06 12:59:14;;;;;;;35.35;22.10;;;13.10;99.90;;;;;;5092294;28;20123;-69
2023/04/06 13:01:40;;;;;;;35.47;21.63;;;12.90;99.90;;;;;;5090983;28;20043;-66
2023/04/06 13:04:05;;;;;;;36.47;22.92;;;13.10;99.90;;;;;;5092123;28;20101;-66
2023/04/06 13:06:31;;;;;;;30.63;21.63;;;12.90;99.90;;;;;;5091860;28;20066;-67
2023/04/06 13:08:57;;;;;;;;;;;13.00;99.90;;;;;;5092110;28;20044;-66